Flugplatz Hamburg

Bericht für EDDH

vom 23.01. um 14:50 UTC

Wind 7 kt aus 100°

Sichtweite 7000 m

gering bewölkt in 1300 ft

Temperatur -4.0°C

Taupunkt -7.0°C

Luftfeuchtigkeit 80%

Luftdruck 1004 hPa

EDDH 231450Z 10007KT 7000 FEW013 M04/M07 Q1004 TEMPO BKN013

Prognose für EDDH

vom 23.01. um 11:00 UTC

Zwischen 12:00 UTC und 10:00 UTC zeitweise

aufgebrochene Bewölkung in 800 ft


Zwischen 12:00 UTC und 18:00 UTC

Wind 7 kt aus 100°

Sichtweite 8000 m

aufgelockert bewölkt in 1200 ft


Zwischen 18:00 UTC und 10:00 UTC zeitweise

Sichtweite 4000 m

feuchter Dunst


Am 24.01. zwischen 10:00 UTC und 18:00 UTC zeitweise

aufgebrochene Bewölkung in 1200 ft

TAF EDDH 231100Z 2312/2418 10007KT 8000 SCT012 TEMPO 2312/2410 BKN008 TEMPO 2318/2410 4000 BR TEMPO 2410/2418 BKN012
Impressum